Time,TemperatureF,DewpointF,PressureIn,WindDirection,WindDirectionDegrees,WindSpeedMPH,WindSpeedGustMPH,Humidity,HourlyPrecipIn,Conditions,Clouds,dailyrainin,SolarRadiationWatts/m^2,SoftwareType,DateUTC
2013-10-03 00:00:00,47.0,45.0,-100.00,SE,135,0.0,-999.0,93,-99.99,,,-99.99,0.000000,,2013-10-03 04:00:00,
2013-10-03 00:44:00,47.0,45.0,-100.00,SE,135,0.0,-999.0,93,-99.99,,,-99.99,0.000000,,2013-10-03 04:44:00,
2013-10-03 00:53:00,47.0,45.0,-100.00,SE,135,0.0,-999.0,93,-99.99,,,-99.99,0.000000,,2013-10-03 04:53:00,
2013-10-03 01:00:00,48.0,44.0,-100.00,ENE,67,0.0,-999.0,87,-99.99,,,-99.99,0.000000,,2013-10-03 05:00:00,
2013-10-03 01:44:00,48.0,44.0,-100.00,ENE,67,0.0,-999.0,87,-99.99,,,-99.99,0.000000,,2013-10-03 05:44:00,
2013-10-03 01:52:00,48.0,44.0,-100.00,ENE,67,0.0,-999.0,87,-99.99,,,-99.99,0.000000,,2013-10-03 05:52:00,
2013-10-03 02:00:00,50.0,43.0,-100.00,East,90,0.0,-999.0,76,-99.99,,,-99.99,0.000000,,2013-10-03 06:00:00,
2013-10-03 02:42:00,50.0,43.0,-100.00,East,90,0.0,-999.0,76,-99.99,,,-99.99,0.000000,,2013-10-03 06:42:00,
2013-10-03 02:52:00,50.0,43.0,-100.00,East,90,0.0,-999.0,76,-99.99,,,-99.99,0.000000,,2013-10-03 06:52:00,
2013-10-03 03:00:00,50.0,43.0,-100.00,ENE,67,0.0,-999.0,75,-99.99,,,-99.99,0.000000,,2013-10-03 07:00:00,
2013-10-03 03:42:00,50.0,43.0,-100.00,ENE,67,0.0,-999.0,75,-99.99,,,-99.99,0.000000,,2013-10-03 07:42:00,
2013-10-03 03:52:00,50.0,43.0,-100.00,ENE,67,0.0,-999.0,75,-99.99,,,-99.99,0.000000,,2013-10-03 07:52:00,
2013-10-03 04:00:00,53.0,41.0,-100.00,ESE,112,0.0,-999.0,64,-99.99,,,-99.99,0.000000,,2013-10-03 08:00:00,
2013-10-03 04:42:00,53.0,41.0,-100.00,ESE,112,0.0,-999.0,64,-99.99,,,-99.99,0.000000,,2013-10-03 08:42:00,
2013-10-03 04:52:00,53.0,41.0,-100.00,ESE,112,0.0,-999.0,64,-99.99,,,-99.99,0.000000,,2013-10-03 08:52:00,
2013-10-03 05:00:00,53.0,42.0,-100.00,ESE,112,0.0,-999.0,67,-99.99,,,-99.99,0.000000,,2013-10-03 09:00:00,
2013-10-03 05:43:00,53.0,42.0,-100.00,ESE,112,0.0,-999.0,67,-99.99,,,-99.99,0.000000,,2013-10-03 09:43:00,
2013-10-03 05:53:00,53.0,42.0,-100.00,ESE,112,0.0,-999.0,67,-99.99,,,-99.99,0.000000,,2013-10-03 09:53:00,
2013-10-03 06:00:00,53.0,44.0,-100.00,East,90,0.0,-999.0,70,-99.99,,,-99.99,0.000000,,2013-10-03 10:00:00,
2013-10-03 06:43:00,53.0,44.0,-100.00,East,90,0.0,-999.0,70,-99.99,,,-99.99,0.000000,,2013-10-03 10:43:00,
2013-10-03 06:52:00,53.0,44.0,-100.00,East,90,0.0,-999.0,70,-99.99,,,-99.99,0.000000,,2013-10-03 10:52:00,
2013-10-03 07:00:00,52.0,44.0,-100.00,ESE,112,0.0,-999.0,72,-99.99,,,-99.99,0.000000,,2013-10-03 11:00:00,
2013-10-03 07:42:00,52.0,44.0,-100.00,ESE,112,0.0,-999.0,72,-99.99,,,-99.99,0.000000,,2013-10-03 11:42:00,
2013-10-03 07:52:00,52.0,44.0,-100.00,ESE,112,0.0,-999.0,72,-99.99,,,-99.99,0.000000,,2013-10-03 11:52:00,
2013-10-03 08:00:00,52.0,45.0,-100.00,ESE,112,0.0,-999.0,74,-99.99,,,-99.99,2.320000,,2013-10-03 12:00:00,
2013-10-03 08:42:00,52.0,45.0,-100.00,ESE,112,0.0,-999.0,74,-99.99,,,-99.99,2.320000,,2013-10-03 12:42:00,
2013-10-03 08:52:00,52.0,45.0,-100.00,ESE,112,0.0,-999.0,74,-99.99,,,-99.99,2.320000,,2013-10-03 12:52:00,
2013-10-03 09:00:00,53.0,46.0,-100.00,East,90,0.0,-999.0,74,-99.99,,,-99.99,69.599998,,2013-10-03 13:00:00,
2013-10-03 09:42:00,53.0,46.0,-100.00,East,90,0.0,-999.0,74,-99.99,,,-99.99,69.599998,,2013-10-03 13:42:00,
2013-10-03 09:52:00,53.0,46.0,-100.00,East,90,0.0,-999.0,74,-99.99,,,-99.99,69.599998,,2013-10-03 13:52:00,
2013-10-03 10:00:00,58.0,48.0,-100.00,SSE,157,1.0,-999.0,70,-99.99,,,-99.99,174.000000,,2013-10-03 14:00:00,
2013-10-03 10:42:00,58.0,48.0,-100.00,SSE,157,1.0,-999.0,70,-99.99,,,-99.99,174.000000,,2013-10-03 14:42:00,
2013-10-03 10:52:00,58.0,48.0,-100.00,SSE,157,1.0,-999.0,70,-99.99,,,-99.99,174.000000,,2013-10-03 14:52:00,
2013-10-03 11:00:00,64.0,54.0,-100.00,SSE,157,1.0,-999.0,68,-99.99,,,-99.99,354.959991,,2013-10-03 15:00:00,
2013-10-03 11:43:00,64.0,54.0,-100.00,SSE,157,1.0,-999.0,68,-99.99,,,-99.99,354.959991,,2013-10-03 15:43:00,
2013-10-03 11:54:00,64.0,54.0,-100.00,SSE,157,1.0,-999.0,68,-99.99,,,-99.99,354.959991,,2013-10-03 15:54:00,
2013-10-03 12:00:00,71.0,60.0,-100.00,SSE,157,4.0,-999.0,68,-99.99,,,-99.99,459.359985,,2013-10-03 16:00:00,
2013-10-03 12:43:00,71.0,60.0,-100.00,SSE,157,4.0,-999.0,68,-99.99,,,-99.99,459.359985,,2013-10-03 16:43:00,
2013-10-03 12:53:00,71.0,60.0,-100.00,SSE,157,4.0,-999.0,68,-99.99,,,-99.99,459.359985,,2013-10-03 16:53:00,
2013-10-03 13:00:00,75.0,62.0,-100.00,SSW,202,7.0,-999.0,65,-99.99,,,-99.99,501.119995,,2013-10-03 17:00:00,
2013-10-03 13:42:00,75.0,62.0,-100.00,SSW,202,7.0,-999.0,65,-99.99,,,-99.99,501.119995,,2013-10-03 17:42:00,
2013-10-03 13:52:00,75.0,62.0,-100.00,SSW,202,7.0,-999.0,65,-99.99,,,-99.99,501.119995,,2013-10-03 17:52:00,
2013-10-03 14:00:00,78.0,63.0,-100.00,SSW,202,8.0,-999.0,59,-99.99,,,-99.99,566.080017,,2013-10-03 18:00:00,
2013-10-03 14:42:00,78.0,63.0,-100.00,SSW,202,8.0,-999.0,59,-99.99,,,-99.99,566.080017,,2013-10-03 18:42:00,
2013-10-03 14:52:00,78.0,63.0,-100.00,SSW,202,8.0,-999.0,59,-99.99,,,-99.99,566.080017,,2013-10-03 18:52:00,
2013-10-03 15:00:00,77.0,63.0,-100.00,SSW,202,9.0,-999.0,61,-99.99,,,-99.99,400.200012,,2013-10-03 19:00:00,
2013-10-03 15:42:00,77.0,63.0,-100.00,SSW,202,9.0,-999.0,61,-99.99,,,-99.99,400.200012,,2013-10-03 19:42:00,
2013-10-03 15:53:00,77.0,63.0,-100.00,SSW,202,9.0,-999.0,61,-99.99,,,-99.99,400.200012,,2013-10-03 19:53:00,
2013-10-03 16:00:00,75.0,62.0,-100.00,SSW,202,9.0,-999.0,65,-99.99,,,-99.99,291.160004,,2013-10-03 20:00:00,
2013-10-03 16:42:00,75.0,62.0,-100.00,SSW,202,9.0,-999.0,65,-99.99,,,-99.99,291.160004,,2013-10-03 20:42:00,
2013-10-03 16:52:00,75.0,62.0,-100.00,SSW,202,9.0,-999.0,65,-99.99,,,-99.99,291.160004,,2013-10-03 20:52:00,
2013-10-03 17:00:00,73.0,63.0,-100.00,SSW,202,6.0,-999.0,70,-99.99,,,-99.99,184.440002,,2013-10-03 21:00:00,
2013-10-03 17:43:00,73.0,63.0,-100.00,SSW,202,6.0,-999.0,70,-99.99,,,-99.99,184.440002,,2013-10-03 21:43:00,
2013-10-03 17:54:00,73.0,63.0,-100.00,SSW,202,6.0,-999.0,70,-99.99,,,-99.99,184.440002,,2013-10-03 21:54:00,
2013-10-03 18:00:00,72.0,63.0,-100.00,SSW,202,6.0,-999.0,74,-99.99,,,-99.99,124.120003,,2013-10-03 22:00:00,
2013-10-03 18:43:00,72.0,63.0,-100.00,SSW,202,6.0,-999.0,74,-99.99,,,-99.99,124.120003,,2013-10-03 22:43:00,
2013-10-03 18:54:00,72.0,63.0,-100.00,SSW,202,6.0,-999.0,74,-99.99,,,-99.99,124.120003,,2013-10-03 22:54:00,
2013-10-03 19:00:00,71.0,63.0,-100.00,SSW,202,1.0,-999.0,76,-99.99,,,-99.99,45.240002,,2013-10-03 23:00:00,
2013-10-03 19:43:00,71.0,63.0,-100.00,SSW,202,1.0,-999.0,76,-99.99,,,-99.99,45.240002,,2013-10-03 23:43:00,
2013-10-03 19:53:00,71.0,63.0,-100.00,SSW,202,1.0,-999.0,76,-99.99,,,-99.99,45.240002,,2013-10-03 23:53:00,
2013-10-03 20:00:00,69.0,63.0,-100.00,SSW,202,0.0,-999.0,80,-99.99,,,-99.99,1.160000,,2013-10-04 00:00:00,
2013-10-03 20:42:00,69.0,63.0,-100.00,SSW,202,0.0,-999.0,80,-99.99,,,-99.99,1.160000,,2013-10-04 00:42:00,
2013-10-03 20:52:00,69.0,63.0,-100.00,SSW,202,0.0,-999.0,80,-99.99,,,-99.99,1.160000,,2013-10-04 00:52:00,
2013-10-03 21:00:00,68.0,62.0,-100.00,South,180,0.0,-999.0,81,-99.99,,,-99.99,0.000000,,2013-10-04 01:00:00,
2013-10-03 21:42:00,68.0,62.0,-100.00,South,180,0.0,-999.0,81,-99.99,,,-99.99,0.000000,,2013-10-04 01:42:00,
2013-10-03 21:52:00,68.0,62.0,-100.00,South,180,0.0,-999.0,81,-99.99,,,-99.99,0.000000,,2013-10-04 01:52:00,
2013-10-03 22:00:00,67.0,63.0,-100.00,ESE,112,0.0,-999.0,85,-99.99,,,-99.99,0.000000,,2013-10-04 02:00:00,
2013-10-03 22:43:00,67.0,63.0,-100.00,ESE,112,0.0,-999.0,85,-99.99,,,-99.99,0.000000,,2013-10-04 02:43:00,
2013-10-03 22:52:00,67.0,63.0,-100.00,ESE,112,0.0,-999.0,85,-99.99,,,-99.99,0.000000,,2013-10-04 02:52:00,
2013-10-03 23:44:00,66.0,63.0,-100.00,SE,135,0.0,-999.0,87,-99.99,,,-99.99,0.000000,,2013-10-04 03:44:00,